createdAt,value
2019-04-11T00:01:44.737Z,65.60
2019-04-11T00:04:08.280Z,65.70
2019-04-11T00:06:36.990Z,65.70
2019-04-11T00:09:10.266Z,65.80
2019-04-11T00:11:39.328Z,65.70
2019-04-11T00:14:08.529Z,65.80
2019-04-11T00:16:37.951Z,65.80
2019-04-11T00:19:07.303Z,65.80
2019-04-11T00:21:37.845Z,65.90
2019-04-11T00:24:07.148Z,65.90
2019-04-11T00:26:36.279Z,65.90
2019-04-11T00:29:05.943Z,66.00
2019-04-11T00:31:35.157Z,66.00
2019-04-11T00:34:04.707Z,66.00
2019-04-11T00:36:34.597Z,66.00
2019-04-11T00:39:05.729Z,66.00
2019-04-11T00:41:35.430Z,66.10
2019-04-11T00:44:04.405Z,66.10
2019-04-11T00:46:34.130Z,66.00
2019-04-11T00:49:03.082Z,66.10
2019-04-11T00:51:32.061Z,66.10
2019-04-11T00:54:02.501Z,66.10
2019-04-11T00:56:32.475Z,66.20
2019-04-11T00:59:02.491Z,66.30
2019-04-11T01:01:31.636Z,66.30
2019-04-11T01:04:01.337Z,66.50
2019-04-11T01:06:30.269Z,66.40
2019-04-11T01:09:00.000Z,66.70
2019-04-11T01:11:30.058Z,66.60
2019-04-11T01:13:59.502Z,66.50
2019-04-11T01:16:48.562Z,66.60
2019-04-11T01:19:19.938Z,66.60
2019-04-11T01:21:49.074Z,66.70
2019-04-11T01:24:18.434Z,66.50
2019-04-11T01:26:49.617Z,66.50
2019-04-11T01:29:19.654Z,66.60
2019-04-11T01:31:53.906Z,66.70
2019-04-11T01:34:22.753Z,66.50
2019-04-11T01:36:51.488Z,66.60
2019-04-11T01:39:27.948Z,66.50
2019-04-11T01:41:57.125Z,66.60
2019-04-11T01:44:25.894Z,66.60
2019-04-11T01:46:54.905Z,66.70
2019-04-11T01:49:24.051Z,66.70
2019-04-11T01:51:53.953Z,66.80
2019-04-11T01:54:23.846Z,66.90
2019-04-11T01:56:53.693Z,66.80
2019-04-11T01:59:23.631Z,66.80
2019-04-11T02:02:05.722Z,67.00
2019-04-11T02:04:42.524Z,67.00
2019-04-11T02:07:12.221Z,66.80
2019-04-11T02:09:41.508Z,66.80
2019-04-11T02:12:10.608Z,66.80
2019-04-11T02:14:39.645Z,66.90
2019-04-11T02:17:08.951Z,66.90
2019-04-11T02:19:38.467Z,67.00
2019-04-11T02:22:24.329Z,66.90
2019-04-11T02:25:09.597Z,67.00
2019-04-11T02:27:40.076Z,66.90
2019-04-11T02:30:11.312Z,66.90
2019-04-11T02:32:42.692Z,66.90
2019-04-11T02:35:13.297Z,66.90
2019-04-11T02:37:44.231Z,67.20
2019-04-11T02:40:13.549Z,67.10
2019-04-11T02:42:43.319Z,67.20
2019-04-11T02:45:24.729Z,67.20
2019-04-11T02:47:47.875Z,67.30
2019-04-11T02:50:18.584Z,67.30
2019-04-11T02:52:47.281Z,67.30
2019-04-11T02:55:17.270Z,67.30
2019-04-11T02:57:48.111Z,68.10
2019-04-11T03:00:18.102Z,67.40
2019-04-11T03:02:50.305Z,67.40
2019-04-11T03:05:20.848Z,67.50
2019-04-11T03:07:49.950Z,67.60
2019-04-11T03:10:20.890Z,67.60
2019-04-11T03:12:49.967Z,67.60
2019-04-11T03:15:32.061Z,67.70
2019-04-11T03:17:54.936Z,67.80
2019-04-11T03:20:30.456Z,67.80
2019-04-11T03:22:57.273Z,67.70
2019-04-11T03:25:24.623Z,67.80
2019-04-11T03:27:54.239Z,67.70
2019-04-11T03:30:34.498Z,67.80
2019-04-11T03:33:55.379Z,67.90
2019-04-11T03:38:19.414Z,68.00
2019-04-11T03:40:48.186Z,67.90
2019-04-11T03:43:09.310Z,68.10
2019-04-11T03:45:48.373Z,68.00
2019-04-11T03:48:12.601Z,68.20
2019-04-11T03:50:33.953Z,68.00
2019-04-11T03:53:04.766Z,68.20
2019-04-11T03:55:34.995Z,68.40
2019-04-11T03:58:05.996Z,68.50
2019-04-11T04:00:37.265Z,68.50
2019-04-11T04:03:06.213Z,68.50
2019-04-11T04:05:36.880Z,68.60
2019-04-11T04:08:06.314Z,68.60
2019-04-11T04:10:36.833Z,68.70
2019-04-11T04:13:11.346Z,68.80
2019-04-11T04:16:18.648Z,68.80
2019-04-11T04:18:45.815Z,68.90
2019-04-11T04:21:28.709Z,68.80
2019-04-11T04:24:01.640Z,68.80
2019-04-11T04:26:31.209Z,68.90
2019-04-11T04:29:01.955Z,68.80
2019-04-11T04:31:32.797Z,68.80
2019-04-11T04:34:02.446Z,68.90
2019-04-11T04:36:33.340Z,69.00
2019-04-11T04:39:05.757Z,69.10
2019-04-11T04:41:44.040Z,69.10
2019-04-11T04:44:08.534Z,69.00
2019-04-11T04:46:52.713Z,69.00
2019-04-11T04:49:09.322Z,69.10
2019-04-11T04:51:41.416Z,69.20
2019-04-11T04:54:12.033Z,69.20
2019-04-11T04:56:42.930Z,69.20
2019-04-11T04:59:14.047Z,69.20
2019-04-11T05:01:44.269Z,69.30
2019-04-11T05:04:15.634Z,69.20
2019-04-11T05:06:48.109Z,69.30
2019-04-11T05:09:15.015Z,69.30
2019-04-11T05:11:46.647Z,69.30
2019-04-11T05:14:16.348Z,69.30
2019-04-11T05:16:46.112Z,69.30
2019-04-11T05:19:14.993Z,69.40
2019-04-11T05:21:43.791Z,69.30
2019-04-11T05:24:12.800Z,69.50
2019-04-11T05:26:41.828Z,69.40
2019-04-11T05:29:11.496Z,69.40
2019-04-11T05:31:40.801Z,69.70
2019-04-11T05:34:10.061Z,69.50
2019-04-11T05:36:39.099Z,69.50
2019-04-11T05:39:08.976Z,69.50
2019-04-11T05:41:42.049Z,69.40
2019-04-11T05:44:10.889Z,69.60
2019-04-11T05:46:49.117Z,69.30
2019-04-11T05:49:29.045Z,69.30
2019-04-11T05:52:03.880Z,69.20
2019-04-11T05:54:46.432Z,69.30
2019-04-11T05:57:13.797Z,69.30
2019-04-11T05:59:48.755Z,69.40
2019-04-11T06:02:26.830Z,69.40
2019-04-11T06:05:05.015Z,69.30
2019-04-11T06:07:42.178Z,69.20
2019-04-11T06:10:14.735Z,68.90
2019-04-11T06:13:21.012Z,68.80
2019-04-11T06:15:52.089Z,68.70
2019-04-11T06:18:33.080Z,68.50
2019-04-11T06:21:05.480Z,68.50
2019-04-11T06:24:09.874Z,68.40
2019-04-11T06:26:49.634Z,68.40
2019-04-11T06:29:34.780Z,68.40
2019-04-11T06:32:25.638Z,69.20
2019-04-11T06:34:59.757Z,68.30
2019-04-11T06:37:49.925Z,68.40
2019-04-11T06:40:26.078Z,68.40
2019-04-11T06:43:11.906Z,68.30
2019-04-11T06:46:07.657Z,68.20
2019-04-11T06:48:42.177Z,68.10
2019-04-11T06:51:24.435Z,68.10
2019-04-11T06:54:11.195Z,68.10
2019-04-11T06:56:43.431Z,67.90
2019-04-11T06:59:18.914Z,67.90
2019-04-11T07:01:47.715Z,67.90
2019-04-11T07:04:21.816Z,67.80
2019-04-11T07:06:51.971Z,67.80
2019-04-11T07:09:39.451Z,67.90
2019-04-11T07:12:13.385Z,67.90
2019-04-11T07:15:07.418Z,67.80
2019-04-11T07:17:54.671Z,67.70
2019-04-11T07:20:41.505Z,67.80
2019-04-11T07:26:23.021Z,67.50
2019-04-11T07:29:11.374Z,67.40
2019-04-11T07:32:16.138Z,67.30
2019-04-11T07:35:23.305Z,67.20
2019-04-11T07:37:55.393Z,67.10
2019-04-11T07:40:43.224Z,66.90
2019-04-11T07:43:15.780Z,66.70
2019-04-11T07:46:11.272Z,66.70
2019-04-11T07:48:43.242Z,66.60
2019-04-11T07:51:32.127Z,66.60
2019-04-11T07:54:02.981Z,66.40
2019-04-11T07:57:04.096Z,66.10
2019-04-11T07:59:41.942Z,66.10
2019-04-11T08:02:45.578Z,65.80
2019-04-11T08:05:32.408Z,65.70
2019-04-11T08:08:21.400Z,65.80
2019-04-11T08:11:13.569Z,65.50
2019-04-11T08:14:02.104Z,65.60
2019-04-11T08:16:59.534Z,65.20
2019-04-11T08:19:47.584Z,65.10
2019-04-11T08:22:37.016Z,65.10
2019-04-11T08:28:10.988Z,64.90
2019-04-11T08:30:48.813Z,64.70
2019-04-11T08:33:18.359Z,64.40
2019-04-11T08:35:55.611Z,64.60
2019-04-11T08:38:34.164Z,64.40
2019-04-11T08:41:19.781Z,64.30
2019-04-11T08:43:48.761Z,64.30
2019-04-11T08:46:37.290Z,63.80
2019-04-11T08:49:09.819Z,63.20
2019-04-11T08:51:39.178Z,62.40
2019-04-11T08:54:25.794Z,63.30
2019-04-11T08:56:55.677Z,62.90
2019-04-11T08:59:43.997Z,62.40
2019-04-11T09:02:18.449Z,62.80
2019-04-11T09:05:14.990Z,62.90
2019-04-11T09:07:49.874Z,63.40
2019-04-11T09:10:36.929Z,63.30
2019-04-11T09:13:17.404Z,62.90
2019-04-11T09:16:04.073Z,62.50
2019-04-11T09:18:33.013Z,62.10
2019-04-11T09:21:40.496Z,61.90
2019-04-11T09:24:26.348Z,61.80
2019-04-11T09:27:14.311Z,59.90
2019-04-11T09:29:46.914Z,60.20
2019-04-11T09:32:42.422Z,58.80
2019-04-11T09:35:22.101Z,58.70
2019-04-11T09:37:51.803Z,58.80
2019-04-11T09:40:45.897Z,59.90
2019-04-11T09:43:24.137Z,60.90
2019-04-11T09:46:12.276Z,60.80
2019-04-11T09:48:51.749Z,60.20
2019-04-11T09:51:40.310Z,59.90
2019-04-11T09:54:35.131Z,58.30
2019-04-11T09:57:16.277Z,58.60
2019-04-11T10:00:04.470Z,58.70
2019-04-11T10:03:01.769Z,58.60
2019-04-11T10:05:42.588Z,58.30
2019-04-11T10:08:16.901Z,58.70
2019-04-11T10:11:03.832Z,58.50
2019-04-11T10:13:49.072Z,58.80
2019-04-11T10:16:46.665Z,58.00
2019-04-11T10:19:20.626Z,58.10
2019-04-11T10:21:54.518Z,58.20
2019-04-11T10:24:51.535Z,57.90
2019-04-11T10:27:33.810Z,58.40
2019-04-11T10:30:22.420Z,58.20
2019-04-11T10:32:53.271Z,58.40
2019-04-11T10:35:40.771Z,58.10
2019-04-11T10:38:09.930Z,58.00
2019-04-11T10:41:04.178Z,57.20
2019-04-11T10:43:34.199Z,56.90
2019-04-11T10:46:11.330Z,57.10
2019-04-11T10:48:49.155Z,56.80
2019-04-11T10:51:31.910Z,56.80
2019-04-11T10:54:03.728Z,56.50
2019-04-11T10:56:47.579Z,56.30
2019-04-11T10:59:17.516Z,56.30
2019-04-11T11:02:02.623Z,56.10
2019-04-11T11:05:03.242Z,56.90
2019-04-11T11:07:33.391Z,57.30
2019-04-11T11:10:13.991Z,56.80
2019-04-11T11:13:09.535Z,56.70
2019-04-11T11:15:45.274Z,56.60
2019-04-11T11:18:59.691Z,55.80
2019-04-11T11:21:07.498Z,55.00
2019-04-11T11:23:54.461Z,55.20
2019-04-11T11:29:40.790Z,54.30
2019-04-11T11:32:29.435Z,54.80
2019-04-11T11:35:27.112Z,55.50
2019-04-11T11:38:02.050Z,55.30
2019-04-11T11:40:50.453Z,55.60
2019-04-11T11:43:27.612Z,54.60
2019-04-11T11:46:03.896Z,53.40
2019-04-11T11:48:38.246Z,54.30
2019-04-11T11:51:41.596Z,54.70
2019-04-11T11:54:39.721Z,54.60
2019-04-11T11:57:16.203Z,54.90
2019-04-11T11:59:48.311Z,54.00
2019-04-11T12:02:30.646Z,54.80
2019-04-11T12:05:16.347Z,54.60
2019-04-11T12:08:00.458Z,54.20
2019-04-11T12:10:35.786Z,54.00
2019-04-11T12:13:22.970Z,54.50
2019-04-11T12:16:20.836Z,55.10
2019-04-11T12:18:56.618Z,54.60
2019-04-11T12:21:29.725Z,55.20
2019-04-11T12:24:29.397Z,54.90
2019-04-11T12:27:24.609Z,54.90
2019-04-11T12:30:23.498Z,54.80
2019-04-11T12:33:14.121Z,54.50
2019-04-11T12:36:01.310Z,55.00
2019-04-11T12:38:48.117Z,54.90
2019-04-11T12:41:36.050Z,54.40
2019-04-11T12:44:30.370Z,54.60
2019-04-11T12:47:27.893Z,54.60
2019-04-11T12:50:23.118Z,54.40
2019-04-11T12:52:59.022Z,54.20
2019-04-11T12:55:32.965Z,53.70
2019-04-11T12:58:39.062Z,54.20
2019-04-11T13:01:25.654Z,54.60
2019-04-11T13:04:12.191Z,54.20
2019-04-11T13:06:51.743Z,54.30
2019-04-11T13:09:31.898Z,53.70
2019-04-11T13:12:01.507Z,53.80
2019-04-11T13:14:39.202Z,53.90
2019-04-11T13:17:10.423Z,51.70
2019-04-11T13:20:05.021Z,51.10
2019-04-11T13:22:32.547Z,51.80
2019-04-11T13:25:20.433Z,52.60
2019-04-11T13:27:55.047Z,52.80
2019-04-11T13:30:48.866Z,51.20
2019-04-11T13:33:23.449Z,51.50
2019-04-11T13:36:14.157Z,52.50
2019-04-11T13:38:44.885Z,52.90
2019-04-11T13:41:51.458Z,52.80
2019-04-11T13:44:23.538Z,52.20
2019-04-11T13:47:14.435Z,52.00
2019-04-11T13:49:45.480Z,52.10
2019-04-11T13:52:33.795Z,52.10
2019-04-11T13:55:21.497Z,52.50
2019-04-11T13:58:12.480Z,52.70
2019-04-11T14:00:49.138Z,52.70
2019-04-11T14:03:49.220Z,50.50
2019-04-11T14:06:27.470Z,51.80
2019-04-11T14:09:24.577Z,52.40
2019-04-11T14:12:04.863Z,52.80
2019-04-11T14:14:57.359Z,50.50
2019-04-11T14:17:42.469Z,51.40
2019-04-11T14:20:32.514Z,50.50
2019-04-11T14:23:29.729Z,50.60
2019-04-11T14:26:23.833Z,50.10
2019-04-11T14:29:04.751Z,51.50
2019-04-11T14:31:55.450Z,52.00
2019-04-11T14:34:42.323Z,51.40
2019-04-11T14:37:37.731Z,51.40
2019-04-11T14:40:06.015Z,49.80
2019-04-11T14:42:52.665Z,50.10
2019-04-11T14:45:54.472Z,50.60
2019-04-11T14:48:40.670Z,50.70
2019-04-11T14:51:26.943Z,50.60
2019-04-11T14:54:03.783Z,51.50
2019-04-11T14:56:33.155Z,50.90
2019-04-11T14:59:23.807Z,49.90
2019-04-11T15:01:53.666Z,49.60
2019-04-11T15:04:43.716Z,50.50
2019-04-11T15:07:12.857Z,50.70
2019-04-11T15:09:50.643Z,49.70
2019-04-11T15:12:22.419Z,49.30
2019-04-11T15:15:19.954Z,50.00
2019-04-11T15:17:50.156Z,50.60
2019-04-11T15:20:33.922Z,50.30
2019-04-11T15:23:07.067Z,49.90
2019-04-11T15:25:55.428Z,50.00
2019-04-11T15:28:44.018Z,49.00
2019-04-11T15:31:26.165Z,49.60
2019-04-11T15:34:09.204Z,50.00
2019-04-11T15:36:39.911Z,49.50
2019-04-11T15:39:26.911Z,48.60
2019-04-11T15:42:02.134Z,50.10
2019-04-11T15:44:45.818Z,50.00
2019-04-11T15:47:18.756Z,49.10
2019-04-11T15:50:09.362Z,50.30
2019-04-11T15:52:41.381Z,50.50
2019-04-11T15:55:37.556Z,50.20
2019-04-11T15:58:06.814Z,49.70
2019-04-11T16:01:03.778Z,49.60
2019-04-11T16:03:33.104Z,49.50
2019-04-11T16:06:20.077Z,49.30
2019-04-11T16:09:01.978Z,49.20
2019-04-11T16:11:53.079Z,50.30
2019-04-11T16:14:38.873Z,50.90
2019-04-11T16:17:35.935Z,50.30
2019-04-11T16:20:27.885Z,50.00
2019-04-11T16:23:16.334Z,49.60
2019-04-11T16:25:51.282Z,50.30
2019-04-11T16:28:38.982Z,50.20
2019-04-11T16:31:10.412Z,49.20
2019-04-11T16:34:07.785Z,49.40
2019-04-11T16:36:40.566Z,49.80
2019-04-11T16:39:44.901Z,50.30
2019-04-11T16:42:15.530Z,50.20
2019-04-11T16:45:06.581Z,50.40
2019-04-11T16:48:00.369Z,50.30
2019-04-11T16:50:29.687Z,50.20
2019-04-11T16:52:58.897Z,50.50
2019-04-11T16:55:27.858Z,50.10
2019-04-11T16:57:57.091Z,51.20
2019-04-11T17:00:26.306Z,51.50
2019-04-11T17:02:55.694Z,51.20
2019-04-11T17:05:26.795Z,51.50
2019-04-11T17:08:20.726Z,51.50
2019-04-11T17:11:08.091Z,51.80
2019-04-11T17:13:37.181Z,52.00
2019-04-11T17:16:08.917Z,51.70
2019-04-11T17:18:38.307Z,51.70
2019-04-11T17:21:08.546Z,51.80
2019-04-11T17:23:37.936Z,52.10
2019-04-11T17:26:06.892Z,52.10
2019-04-11T17:28:36.309Z,52.30
2019-04-11T17:31:05.307Z,52.30
2019-04-11T17:33:34.423Z,52.50
2019-04-11T17:36:03.622Z,52.70
2019-04-11T17:38:36.847Z,52.80
2019-04-11T17:41:03.541Z,52.50
2019-04-11T17:43:32.432Z,52.50
2019-04-11T17:46:01.497Z,52.20
2019-04-11T17:48:30.913Z,52.70
2019-04-11T17:50:59.761Z,52.80
2019-04-11T17:53:28.914Z,53.00
2019-04-11T17:55:58.318Z,53.10
2019-04-11T17:58:27.853Z,53.20
2019-04-11T18:01:00.370Z,53.30
2019-04-11T18:03:29.573Z,53.20
2019-04-11T18:05:58.682Z,53.60
2019-04-11T18:08:27.458Z,53.50
2019-04-11T18:10:56.726Z,53.50
2019-04-11T18:13:30.578Z,53.70
2019-04-11T18:16:00.727Z,53.80
2019-04-11T18:18:27.961Z,53.80
2019-04-11T18:20:57.387Z,53.90
2019-04-11T18:23:26.793Z,54.00
2019-04-11T18:25:55.833Z,54.10
2019-04-11T18:28:24.938Z,54.00
2019-04-11T18:30:54.671Z,54.10
2019-04-11T18:33:24.251Z,54.20
2019-04-11T18:35:55.102Z,54.40
2019-04-11T18:38:24.291Z,54.40
2019-04-11T18:40:56.002Z,54.60
2019-04-11T18:43:25.566Z,54.40
2019-04-11T18:45:55.020Z,54.60
2019-04-11T18:48:23.958Z,55.40
2019-04-11T18:50:53.937Z,54.90
2019-04-11T18:53:22.855Z,54.90
2019-04-11T18:55:54.584Z,55.00
2019-04-11T18:58:24.447Z,55.00
2019-04-11T19:00:53.669Z,55.10
2019-04-11T19:03:23.209Z,55.30
2019-04-11T19:05:52.987Z,55.20
2019-04-11T19:08:22.147Z,55.40
2019-04-11T19:10:51.780Z,55.40
2019-04-11T19:13:20.670Z,55.50
2019-04-11T19:15:49.894Z,55.50
2019-04-11T19:18:18.857Z,55.20
2019-04-11T19:20:50.310Z,55.70
2019-04-11T19:23:19.865Z,55.60
2019-04-11T19:25:49.087Z,55.70
2019-04-11T19:28:17.964Z,55.80
2019-04-11T19:30:46.877Z,55.40
2019-04-11T19:33:16.053Z,55.90
2019-04-11T19:35:45.567Z,56.30
2019-04-11T19:38:29.738Z,56.10
2019-04-11T19:40:59.022Z,56.00
2019-04-11T19:43:27.827Z,56.20
2019-04-11T19:45:58.648Z,56.20
2019-04-11T19:48:29.282Z,56.30
2019-04-11T19:50:58.964Z,56.30
2019-04-11T19:53:32.681Z,56.40
2019-04-11T19:56:08.239Z,56.40
2019-04-11T19:58:37.051Z,56.50
2019-04-11T20:01:06.223Z,56.50
2019-04-11T20:03:34.999Z,56.50
2019-04-11T20:06:03.906Z,56.50
2019-04-11T20:08:32.905Z,56.60
2019-04-11T20:11:02.032Z,56.50
2019-04-11T20:13:32.235Z,56.70
2019-04-11T20:16:02.271Z,56.70
2019-04-11T20:18:31.392Z,56.70
2019-04-11T20:21:00.784Z,56.80
2019-04-11T20:23:30.171Z,56.80
2019-04-11T20:25:59.828Z,56.80
2019-04-11T20:28:28.954Z,56.80
2019-04-11T20:30:57.783Z,56.90
2019-04-11T20:33:27.710Z,57.00
2019-04-11T20:35:56.811Z,57.00
2019-04-11T20:38:25.682Z,57.00
2019-04-11T20:40:55.187Z,57.10
2019-04-11T20:43:25.419Z,57.20
2019-04-11T20:45:58.034Z,57.20
2019-04-11T20:48:26.118Z,57.20
2019-04-11T20:50:55.824Z,57.20
2019-04-11T20:53:24.892Z,57.20
2019-04-11T20:55:53.975Z,57.30
2019-04-11T20:58:27.493Z,57.30
2019-04-11T21:00:55.993Z,57.30
2019-04-11T21:03:25.207Z,57.40
2019-04-11T21:05:54.313Z,57.40
2019-04-11T21:08:23.153Z,57.40
2019-04-11T21:10:52.019Z,57.40
2019-04-11T21:13:21.330Z,57.40
2019-04-11T21:15:50.211Z,57.50
2019-04-11T21:18:19.202Z,57.50
2019-04-11T21:20:48.407Z,57.50
2019-04-11T21:23:24.309Z,57.50
2019-04-11T21:25:48.846Z,57.60
2019-04-11T21:28:17.597Z,57.60
2019-04-11T21:30:46.793Z,57.50
2019-04-11T21:33:19.151Z,57.60
2019-04-11T21:35:49.568Z,57.70
2019-04-11T21:38:19.706Z,57.70
2019-04-11T21:40:51.140Z,57.80
2019-04-11T21:43:23.430Z,57.80
2019-04-11T21:45:54.674Z,57.80
2019-04-11T21:48:24.580Z,57.80
2019-04-11T21:50:53.834Z,58.00
2019-04-11T21:53:35.800Z,57.90
2019-04-11T21:55:55.454Z,57.90
2019-04-11T21:58:25.799Z,58.00
2019-04-11T22:01:04.831Z,58.00
2019-04-11T22:03:35.226Z,58.10
2019-04-11T22:06:04.576Z,58.00
2019-04-11T22:08:34.375Z,58.10
2019-04-11T22:11:05.063Z,58.10
2019-04-11T22:13:37.939Z,58.10
2019-04-11T22:16:06.402Z,58.20
2019-04-11T22:18:36.121Z,58.10
2019-04-11T22:21:05.670Z,58.20
2019-04-11T22:23:35.077Z,58.30
2019-04-11T22:26:04.650Z,58.30
2019-04-11T22:28:34.592Z,58.40
2019-04-11T22:31:03.739Z,58.40
2019-04-11T22:33:38.026Z,58.40
2019-04-11T22:36:10.922Z,58.40
2019-04-11T22:38:43.396Z,58.50
2019-04-11T22:41:13.069Z,58.50
2019-04-11T22:43:43.247Z,58.60
2019-04-11T22:46:20.697Z,58.60
2019-04-11T22:48:44.059Z,58.80
2019-04-11T22:51:13.447Z,58.70
2019-04-11T22:53:43.314Z,58.70
2019-04-11T22:56:14.928Z,58.70
2019-04-11T22:58:45.287Z,58.70
2019-04-11T23:01:16.608Z,58.80
2019-04-11T23:03:49.065Z,58.90
2019-04-11T23:06:18.712Z,59.00
2019-04-11T23:08:50.847Z,58.90
2019-04-11T23:11:20.475Z,58.90
2019-04-11T23:13:50.060Z,59.00
2019-04-11T23:16:19.519Z,59.60
2019-04-11T23:18:48.817Z,59.10
2019-04-11T23:21:18.163Z,59.10
2019-04-11T23:23:47.937Z,59.10
2019-04-11T23:26:17.842Z,59.20
2019-04-11T23:28:48.164Z,59.20
2019-04-11T23:31:19.771Z,59.20
2019-04-11T23:33:51.694Z,59.20
2019-04-11T23:36:21.298Z,59.20
2019-04-11T23:38:52.677Z,59.90
2019-04-11T23:41:21.833Z,59.30
2019-04-11T23:43:52.127Z,59.40
2019-04-11T23:46:22.084Z,59.50
2019-04-11T23:48:55.536Z,59.50
2019-04-11T23:51:26.354Z,59.60
2019-04-11T23:53:58.999Z,59.60
2019-04-11T23:56:28.181Z,59.80
2019-04-11T23:59:01.644Z,59.70
